Time;durP1;ratioP1;P1;durP2;ratioP2;P2;SDS_P1;SDS_P2;PMS_P1;PMS_P2;Temp;Humidity;BMP_temperature;BMP_pressure;BME280_temperature;BME280_humidity;BME280_pressure;Samples;Min_cycle;Max_cycle;Signal;HPM_P1;HPM_P2
2022/10/14 00:00:33;;;;;;;8.05;4.80;;;12.20;99.90;;;11.76;100.00;97456.66;4985577;28;20280;-64
2022/10/14 00:02:59;;;;;;;5.88;4.57;;;12.20;99.90;;;11.78;100.00;97455.66;4985580;28;20034;-63
2022/10/14 00:05:24;;;;;;;5.35;4.30;;;12.20;99.90;;;11.77;100.00;97453.94;4979831;28;20088;-63
2022/10/14 00:07:50;;;;;;;5.32;4.18;;;12.20;99.90;;;11.78;100.00;97454.81;4985098;28;20045;-63
2022/10/14 00:10:16;;;;;;;6.05;4.20;;;12.20;99.90;;;11.75;100.00;97453.13;4986772;28;21382;-63
2022/10/14 00:12:42;;;;;;;5.95;4.43;;;12.20;99.90;;;11.61;100.00;97429.94;4991592;28;20025;-64
2022/10/14 00:15:08;;;;;;;7.47;5.03;;;12.20;99.90;;;11.73;100.00;97454.13;4983424;28;20042;-63
2022/10/14 00:17:35;;;;;;;6.57;4.30;;;12.20;99.90;;;11.73;100.00;97451.47;4977642;28;20034;-62
2022/10/14 00:20:00;;;;;;;7.05;4.50;;;12.20;99.90;;;11.72;100.00;97448.00;4979497;28;20041;-62
2022/10/14 00:22:26;;;;;;;8.93;4.22;;;12.20;99.90;;;11.71;100.00;97451.53;4984301;28;20038;-64
2022/10/14 00:24:52;;;;;;;6.85;4.70;;;12.20;99.90;;;11.72;100.00;97455.03;4984964;28;20574;-62
2022/10/14 00:27:18;;;;;;;7.28;4.55;;;12.20;99.90;;;11.74;100.00;97455.84;4981997;28;20040;-64
2022/10/14 00:29:43;;;;;;;7.38;5.60;;;12.20;99.90;;;11.74;100.00;97456.72;4984647;28;20423;-61
2022/10/14 00:32:09;;;;;;;9.02;4.80;;;12.20;99.90;;;11.75;100.00;97454.91;4985142;28;20120;-62
2022/10/14 00:34:35;;;;;;;6.88;4.60;;;12.20;99.90;;;11.75;100.00;97460.19;4982751;28;20454;-62
2022/10/14 00:37:01;;;;;;;10.63;4.75;;;12.20;99.90;;;11.76;100.00;97454.84;4982993;28;20041;-62
2022/10/14 00:39:26;;;;;;;7.57;4.93;;;12.20;99.90;;;11.78;100.00;97466.22;4986971;28;20045;-63
2022/10/14 00:41:52;;;;;;;9.25;5.65;;;12.20;99.90;;;11.79;100.00;97464.44;4979507;28;20033;-63
2022/10/14 00:44:18;;;;;;;7.13;5.00;;;12.20;99.90;;;11.79;100.00;97464.44;4981004;28;20524;-62
2022/10/14 00:46:49;;;;;;;6.30;5.18;;;12.20;99.90;;;11.80;100.00;97460.88;4976386;28;20469;-63
2022/10/14 00:49:31;;;;;;;7.47;4.78;;;12.20;99.90;;;11.80;100.00;97460.88;4983493;28;20046;-63
2022/10/14 00:52:04;;;;;;;6.55;4.68;;;12.30;99.90;;;11.80;100.00;97456.44;4978674;28;20116;-63
2022/10/14 00:54:37;;;;;;;10.52;4.80;;;12.30;99.90;;;11.83;100.00;97458.97;4971694;28;20508;-63
2022/10/14 00:57:03;;;;;;;6.40;5.05;;;12.30;99.90;;;11.84;100.00;97454.53;4965622;28;20122;-63
2022/10/14 00:59:30;;;;;;;7.75;5.43;;;12.30;99.90;;;11.85;100.00;97456.25;4984558;28;20040;-63
2022/10/14 01:01:55;;;;;;;9.68;5.03;;;12.30;99.90;;;11.86;100.00;97455.31;4976698;28;20461;-63
2022/10/14 01:04:21;;;;;;;6.97;4.90;;;12.30;99.90;;;11.89;100.00;97454.34;4985828;28;20034;-63
2022/10/14 01:06:59;;;;;;;7.78;5.35;;;12.30;99.90;;;11.90;100.00;97451.69;4962614;28;20176;-63
2022/10/14 01:09:32;;;;;;;8.48;4.38;;;12.30;99.90;;;11.90;100.00;97451.69;4982393;28;20038;-62
2022/10/14 01:12:25;;;;;;;7.20;4.90;;;12.30;99.90;;;11.93;100.00;97451.53;4966830;28;20153;-63
2022/10/14 01:15:25;;;;;;;6.25;4.65;;;12.40;99.90;;;11.96;100.00;97442.63;4966944;28;20077;-62
2022/10/14 01:18:31;;;;;;;9.85;5.45;;;12.40;99.90;;;11.98;100.00;97441.63;4958951;28;20045;-62
2022/10/14 01:21:06;;;;;;;6.80;4.93;;;12.40;99.90;;;11.99;100.00;97445.16;4951210;28;20056;-61
2022/10/14 01:23:45;;;;;;;7.43;5.18;;;12.40;99.90;;;12.02;100.00;97445.91;4988943;28;20033;-61
2022/10/14 01:26:55;;;;;;;7.78;4.85;;;12.50;99.90;;;12.03;100.00;97442.31;4966610;28;20037;-61
2022/10/14 01:29:52;;;;;;;6.88;5.10;;;12.50;99.90;;;12.06;100.00;97443.09;4971408;28;20068;-61
2022/10/14 01:32:57;;;;;;;6.10;4.50;;;12.50;99.90;;;12.06;100.00;97440.47;4988486;28;20042;-62
2022/10/14 01:35:40;;;;;;;6.80;4.20;;;12.50;99.90;;;12.07;100.00;97439.53;4963597;28;20045;-62
2022/10/14 01:39:03;;;;;;;7.00;4.60;;;12.50;99.90;;;12.03;100.00;97437.03;4989137;28;20565;-62
2022/10/14 01:41:36;;;;;;;10.65;5.47;;;12.50;99.90;;;12.07;100.00;97439.53;4987685;28;20029;-61
2022/10/14 01:44:09;;;;;;;4.68;4.10;;;12.50;99.90;;;12.07;100.00;97439.53;4973804;28;20107;-62
2022/10/14 01:46:38;;;;;;;8.57;5.47;;;12.50;99.90;;;12.03;100.00;97437.03;4965453;28;20446;-63
2022/10/14 01:49:11;;;;;;;9.23;5.38;;;12.50;99.90;;;12.00;100.00;97446.88;4969237;28;20032;-61
2022/10/14 01:51:52;;;;;;;9.98;4.88;;;12.50;99.90;;;11.99;100.00;97446.00;4970541;28;20030;-61
2022/10/14 01:54:25;;;;;;;7.05;4.65;;;12.40;99.90;;;11.98;100.00;97443.44;4979345;28;20370;-62
2022/10/14 01:56:54;;;;;;;7.15;5.35;;;12.40;99.90;;;11.97;100.00;97439.94;4961967;28;20491;-61
2022/10/14 01:59:22;;;;;;;7.30;5.20;;;12.40;99.90;;;11.96;100.00;97440.00;4967821;28;20034;-62
2022/10/14 02:01:47;;;;;;;6.65;5.00;;;12.40;99.90;;;11.95;100.00;97443.56;4982122;28;20030;-62
2022/10/14 02:04:16;;;;;;;7.68;5.03;;;12.40;99.90;;;11.90;100.00;97438.47;4977773;28;20396;-62
2022/10/14 02:06:53;;;;;;;7.40;5.32;;;12.40;99.90;;;11.93;100.00;97440.97;4984248;28;20026;-62
2022/10/14 02:09:51;;;;;;;7.20;5.53;;;12.40;99.90;;;11.92;100.00;97435.78;4984023;28;20105;-62
2022/10/14 02:12:44;;;;;;;7.22;6.03;;;12.40;99.90;;;11.92;100.00;97444.56;4992118;28;20084;-62
2022/10/14 02:15:31;;;;;;;7.05;5.50;;;12.40;99.90;;;11.87;100.00;97437.72;4969250;28;20438;-62
2022/10/14 02:18:19;;;;;;;9.70;5.97;;;12.30;99.90;;;11.84;100.00;97441.31;4977971;28;20038;-62
2022/10/14 02:21:09;;;;;;;11.32;5.20;;;12.30;99.90;;;11.80;100.00;97437.94;4972991;28;20488;-63
2022/10/14 02:23:44;;;;;;;7.07;5.47;;;12.30;99.90;;;11.76;100.00;97432.88;4983132;28;20438;-62
2022/10/14 02:26:11;;;;;;;10.95;5.30;;;12.20;99.90;;;11.72;100.00;97437.41;4967456;28;20037;-63
2022/10/14 02:28:38;;;;;;;7.75;5.45;;;12.20;99.90;;;11.72;100.00;97436.53;4987142;28;20301;-63
2022/10/14 02:31:11;;;;;;;11.05;5.25;;;12.20;99.90;;;11.57;100.00;97414.25;4949050;28;20124;-63
2022/10/14 02:33:40;;;;;;;;;;;12.20;99.90;;;11.69;100.00;97432.25;4975840;28;20484;-63
2022/10/14 02:36:08;;;;;;;6.90;4.53;;;12.20;99.90;;;11.66;100.00;97435.00;4966779;28;20531;-63
2022/10/14 02:38:35;;;;;;;9.43;4.43;;;12.20;99.90;;;11.69;100.00;97432.25;4969525;28;20041;-62
2022/10/14 02:41:06;;;;;;;6.25;4.45;;;12.20;99.90;;;11.69;100.00;97426.13;4985140;28;20050;-63
2022/10/14 02:43:32;;;;;;;6.75;4.72;;;12.10;99.90;;;11.64;100.00;97424.50;4970169;28;20033;-62
2022/10/14 02:46:01;;;;;;;8.75;4.50;;;12.10;99.90;;;11.61;100.00;97419.38;4985759;28;20484;-62
2022/10/14 02:48:27;;;;;;;7.07;4.75;;;12.10;99.90;;;11.63;100.00;97422.81;4987886;28;20037;-62
2022/10/14 02:50:52;;;;;;;8.40;4.00;;;12.10;99.90;;;11.59;100.00;97410.66;4983315;28;20046;-62
2022/10/14 02:53:18;;;;;;;8.23;4.20;;;12.10;99.90;;;11.63;100.00;97408.75;4986251;28;20220;-62
2022/10/14 02:55:44;;;;;;;6.45;4.05;;;12.10;99.90;;;11.63;100.00;97401.66;4982350;28;20118;-62
2022/10/14 02:58:09;;;;;;;10.27;4.03;;;12.10;99.90;;;11.64;100.00;97402.53;4984783;28;20606;-62
2022/10/14 03:00:35;;;;;;;5.65;3.83;;;12.10;99.90;;;11.64;100.00;97390.16;4969188;28;20125;-62
2022/10/14 03:03:01;;;;;;;6.90;3.70;;;12.10;99.90;;;11.65;100.00;97386.63;4981594;28;20037;-61
2022/10/14 03:05:27;;;;;;;5.50;3.70;;;12.10;99.90;;;11.61;100.00;97385.03;4983444;28;20124;-62
2022/10/14 03:07:52;;;;;;;5.18;3.80;;;12.10;99.90;;;11.63;100.00;97377.91;4981327;28;20129;-62
2022/10/14 03:10:18;;;;;;;6.53;4.07;;;12.10;99.90;;;11.64;100.00;97370.81;4987246;28;20533;-62
2022/10/14 03:12:44;;;;;;;4.43;3.60;;;12.10;99.90;;;11.64;100.00;97370.81;4982359;28;20033;-62
2022/10/14 03:15:10;;;;;;;5.15;3.33;;;12.10;99.90;;;11.67;100.00;97369.84;4985026;28;20088;-62
2022/10/14 03:17:36;;;;;;;6.57;4.03;;;12.10;99.90;;;11.65;100.00;97368.13;4983460;28;20267;-62
2022/10/14 03:20:03;;;;;;;4.93;3.88;;;12.10;99.90;;;11.56;100.00;97341.25;4988273;28;20038;-62
2022/10/14 03:22:29;;;;;;;5.75;3.90;;;12.10;99.90;;;11.70;100.00;97364.41;4985166;28;20121;-62
2022/10/14 03:24:55;;;;;;;7.43;4.05;;;12.10;99.90;;;11.71;100.00;97366.16;4987681;28;20445;-62
2022/10/14 03:27:21;;;;;;;5.45;3.95;;;12.10;99.90;;;11.71;100.00;97367.00;4987024;28;20033;-62
2022/10/14 03:32:16;;;;;;;6.15;4.85;;;12.10;99.90;;;11.71;100.00;97358.22;4986810;28;20069;-40
2022/10/14 03:34:42;;;;;;;5.70;4.25;;;12.10;99.90;;;11.73;100.00;97354.56;4970375;28;20038;-40
2022/10/14 03:37:08;;;;;;;6.70;4.38;;;12.20;99.90;;;11.74;100.00;97352.81;4981943;28;20030;-40
2022/10/14 03:39:33;;;;;;;7.82;4.38;;;12.20;99.90;;;11.69;100.00;97341.59;4988070;28;20330;-40
2022/10/14 03:41:59;;;;;;;5.78;4.47;;;12.20;99.90;;;11.69;100.00;97341.59;4983601;28;20041;-40
2022/10/14 03:44:25;;;;;;;8.45;4.82;;;12.10;99.90;;;11.62;100.00;97336.53;4988659;28;20103;-39
2022/10/14 03:46:51;;;;;;;7.25;4.93;;;12.10;99.90;;;11.64;100.00;97339.97;4982407;28;20034;-40
2022/10/14 03:49:16;;;;;;;9.50;5.25;;;12.10;99.90;;;11.57;100.00;97340.31;4983293;28;20038;-40
2022/10/14 03:51:42;;;;;;;6.90;4.40;;;12.00;99.90;;;11.55;100.00;97334.22;4981568;28;20144;-39
2022/10/14 03:54:08;;;;;;;5.72;4.57;;;12.00;99.90;;;11.54;100.00;97335.16;4977753;28;20038;-40
2022/10/14 03:56:33;;;;;;;11.73;5.78;;;12.00;99.90;;;11.51;100.00;97332.66;4977458;28;20850;-39
2022/10/14 03:58:59;;;;;;;7.78;5.32;;;12.00;99.90;;;11.51;100.00;97325.56;4976481;28;20041;-40
2022/10/14 04:01:25;;;;;;;7.30;5.43;;;12.00;99.90;;;11.53;100.00;97323.72;4969855;28;20034;-40
2022/10/14 04:03:51;;;;;;;8.35;5.38;;;12.00;99.90;;;11.55;100.00;97334.22;4981701;28;20048;-40
2022/10/14 04:06:16;;;;;;;11.40;5.57;;;12.00;99.90;;;11.57;100.00;97327.94;4972171;28;20034;-40
2022/10/14 04:08:43;;;;;;;9.60;6.13;;;12.00;99.90;;;11.60;100.00;97321.69;4973315;28;20057;-40
2022/10/14 04:11:09;;;;;;;8.88;5.95;;;12.00;99.90;;;11.63;100.00;97318.94;4953358;28;20041;-40
2022/10/14 04:13:35;;;;;;;6.70;5.22;;;12.10;99.90;;;11.50;100.00;97291.31;4972464;28;20364;-40
2022/10/14 04:16:06;;;;;;;6.75;5.25;;;12.10;99.90;;;11.62;100.00;97310.13;4973149;28;22005;-40
2022/10/14 04:18:33;;;;;;;9.55;5.95;;;12.10;99.90;;;11.68;100.00;97319.56;4989791;28;20018;-40
2022/10/14 04:21:05;;;;;;;8.55;6.05;;;12.10;99.90;;;11.67;100.00;97307.31;4979218;28;20026;-40
2022/10/14 04:23:31;;;;;;;9.40;6.60;;;12.10;99.90;;;11.68;100.00;97301.06;4982176;28;20559;-40
2022/10/14 04:25:56;;;;;;;8.77;6.28;;;12.10;99.90;;;11.70;100.00;97299.25;4983610;28;20030;-40
2022/10/14 04:28:22;;;;;;;8.75;6.95;;;12.10;99.90;;;11.68;100.00;97301.06;4975951;28;20569;-40
2022/10/14 04:30:48;;;;;;;10.75;6.35;;;12.10;99.90;;;11.68;100.00;97302.88;4984650;28;20160;-40
2022/10/14 04:33:14;;;;;;;13.30;6.80;;;12.10;99.90;;;11.67;100.00;97307.31;4987596;28;20038;-40
2022/10/14 04:35:39;;;;;;;7.95;6.20;;;12.10;99.90;;;11.67;100.00;97309.94;4991048;28;20127;-40
2022/10/14 04:38:05;;;;;;;8.85;6.43;;;12.10;99.90;;;11.57;100.00;97284.84;4972881;28;20026;-40
2022/10/14 04:40:31;;;;;;;9.10;6.35;;;12.10;99.90;;;11.69;100.00;97300.16;4985892;28;20124;-39
2022/10/14 04:42:57;;;;;;;10.40;7.10;;;12.10;99.90;;;11.71;100.00;97294.81;4990146;28;20072;-40
2022/10/14 04:45:24;;;;;;;8.80;6.18;;;12.10;99.90;;;11.72;100.00;97299.16;4990416;28;20384;-40
2022/10/14 04:47:50;;;;;;;11.80;7.30;;;12.20;99.90;;;11.73;100.00;97292.97;4989133;28;20583;-41
2022/10/14 04:50:17;;;;;;;9.13;7.22;;;12.20;99.90;;;11.71;100.00;97290.38;4970193;28;20041;-41
2022/10/14 04:52:43;;;;;;;11.82;7.45;;;12.20;99.90;;;11.75;100.00;97294.59;4992263;28;20547;-40
2022/10/14 04:55:09;;;;;;;12.27;6.43;;;12.20;99.90;;;11.76;100.00;97287.56;4991235;28;20141;-40
2022/10/14 04:57:35;;;;;;;8.40;6.70;;;12.20;99.90;;;11.77;100.00;97294.53;4974561;28;20156;-41
2022/10/14 05:00:05;;;;;;;9.05;6.50;;;12.20;99.90;;;11.78;100.00;97293.63;4975484;28;20057;-40
2022/10/14 05:02:31;;;;;;;10.10;6.85;;;12.20;99.90;;;11.79;100.00;97285.66;4997125;28;20081;-40
2022/10/14 05:04:56;;;;;;;9.85;7.22;;;12.30;99.90;;;11.82;100.00;97284.63;4991002;28;20788;-40
2022/10/14 05:07:22;;;;;;;9.68;7.32;;;12.20;99.90;;;11.83;100.00;97281.94;4969197;28;20037;-41
2022/10/14 05:09:48;;;;;;;8.52;7.00;;;12.30;99.90;;;11.84;100.00;97277.50;4983024;28;20109;-40
2022/10/14 05:12:13;;;;;;;11.48;7.10;;;12.30;99.90;;;11.84;100.00;97269.56;4988274;28;20049;-40
2022/10/14 05:14:39;;;;;;;10.02;7.07;;;12.30;99.90;;;11.82;100.00;97269.63;4993488;28;20041;-40
2022/10/14 05:17:05;;;;;;;10.40;6.90;;;12.20;99.90;;;11.81;100.00;97267.94;4993861;28;20540;-40
2022/10/14 05:19:31;;;;;;;9.23;6.68;;;12.30;99.90;;;11.82;100.00;97258.22;4989698;28;20460;-40
2022/10/14 05:21:56;;;;;;;12.27;7.55;;;12.30;99.90;;;11.82;100.00;97264.34;4990378;28;20753;-40
2022/10/14 05:24:22;;;;;;;10.75;7.75;;;12.30;99.90;;;11.82;100.00;97268.78;4988252;28;20033;-40
2022/10/14 05:26:48;;;;;;;11.93;8.38;;;12.30;99.90;;;11.76;100.00;97245.28;4974360;28;20030;-39
2022/10/14 05:29:13;;;;;;;9.93;7.25;;;12.20;99.90;;;11.81;100.00;97261.81;4990078;28;20034;-40
2022/10/14 05:31:39;;;;;;;12.52;7.53;;;12.20;99.90;;;11.80;100.00;97257.44;4992295;28;20400;-40
2022/10/14 05:34:05;;;;;;;12.57;7.43;;;12.20;99.90;;;11.80;100.00;97252.16;4994498;28;20071;-40
2022/10/14 05:36:31;;;;;;;11.18;8.07;;;12.20;99.90;;;11.80;100.00;97249.50;4995200;28;20040;-40
2022/10/14 05:38:57;;;;;;;10.30;7.45;;;12.30;99.90;;;11.76;100.00;97234.72;4974707;28;20874;-40
2022/10/14 05:41:24;;;;;;;10.95;8.18;;;12.30;99.90;;;11.82;100.00;97245.84;4977795;28;20030;-40
2022/10/14 05:43:50;;;;;;;12.32;7.47;;;12.30;99.90;;;11.84;100.00;97244.03;4988758;28;20529;-40
2022/10/14 05:46:16;;;;;;;14.23;9.00;;;12.30;99.90;;;11.85;100.00;97242.22;4988910;28;20133;-40
2022/10/14 05:48:41;;;;;;;10.60;7.63;;;12.30;99.90;;;11.82;100.00;97232.63;4972004;28;20526;-40
2022/10/14 05:51:08;;;;;;;10.32;7.63;;;12.30;99.90;;;11.89;100.00;97246.44;4989355;28;20129;-40
2022/10/14 05:53:35;;;;;;;11.63;7.70;;;12.30;99.90;;;11.91;100.00;97236.69;4989440;28;20038;-40
2022/10/14 05:56:06;;;;;;;9.88;7.63;;;12.40;99.90;;;11.95;100.00;97240.06;4985151;28;20089;-40
2022/10/14 05:58:32;;;;;;;9.98;7.57;;;12.40;99.90;;;11.98;100.00;97243.41;4973193;28;20302;-40
2022/10/14 06:01:00;;;;;;;9.40;7.80;;;12.40;99.90;;;11.99;100.00;97244.31;4988870;28;20023;-40
2022/10/14 06:03:26;;;;;;;13.57;8.55;;;12.50;99.90;;;12.03;100.00;97246.72;4988244;28;20030;-42
2022/10/14 06:05:52;;;;;;;9.90;7.38;;;12.50;99.90;;;11.94;100.00;97226.00;4992786;28;22470;-42
2022/10/14 06:08:17;;;;;;;10.70;7.15;;;12.50;99.90;;;12.08;100.00;97235.94;4991289;28;20033;-41
2022/10/14 06:10:43;;;;;;;9.52;7.18;;;12.50;99.90;;;12.11;100.00;97238.44;4994653;28;20410;-41
2022/10/14 06:13:09;;;;;;;14.02;8.93;;;12.50;99.90;;;12.13;100.00;97235.72;4992849;28;20084;-41
2022/10/14 06:15:35;;;;;;;9.38;7.00;;;12.60;99.90;;;12.12;100.00;97226.09;4990075;28;20449;-41
2022/10/14 06:18:01;;;;;;;9.30;7.07;;;12.60;99.90;;;12.16;100.00;97238.22;4995846;28;20403;-41
2022/10/14 06:20:28;;;;;;;9.70;7.05;;;12.70;99.90;;;12.23;100.00;97250.25;4993948;28;20311;-41
2022/10/14 06:22:54;;;;;;;11.40;8.00;;;12.70;99.90;;;12.26;100.00;97258.03;4993391;28;20062;-41
2022/10/14 06:25:19;;;;;;;11.80;7.10;;;12.70;99.90;;;12.29;100.00;97249.09;4991986;28;20125;-42
2022/10/14 06:27:45;;;;;;;12.27;7.35;;;12.70;99.90;;;12.29;100.00;97246.44;4997488;28;20030;-42
2022/10/14 06:30:12;;;;;;;9.63;6.72;;;12.70;99.90;;;12.33;100.00;97254.19;4991879;28;20100;-41
2022/10/14 06:32:37;;;;;;;10.85;7.72;;;12.80;99.90;;;12.36;100.00;97251.41;4996732;28;20055;-42
2022/10/14 06:35:04;;;;;;;11.07;6.90;;;12.80;99.90;;;12.39;100.00;97245.94;4998380;28;20136;-39
2022/10/14 06:37:30;;;;;;;12.10;6.97;;;12.90;99.90;;;12.41;100.00;97233.50;4996501;28;20029;-40
2022/10/14 06:39:56;;;;;;;11.65;7.15;;;12.90;99.90;;;12.47;100.00;97245.63;4995489;28;20494;-40
2022/10/14 06:42:21;;;;;;;10.52;6.60;;;12.90;99.90;;;12.54;100.00;97248.81;4995260;28;20061;-40
2022/10/14 06:44:47;;;;;;;11.00;7.00;;;13.00;99.90;;;12.61;100.00;97244.94;4997640;28;20446;-40
2022/10/14 06:47:13;;;;;;;9.32;6.72;;;13.00;99.90;;;12.68;100.00;97253.44;4991106;28;20034;-40
2022/10/14 06:49:38;;;;;;;10.55;7.28;;;13.10;99.90;;;12.71;100.00;97243.56;4992188;28;20612;-40
2022/10/14 06:52:05;;;;;;;9.85;6.90;;;13.20;99.90;;;12.79;100.00;97244.09;4991680;28;20021;-40
2022/10/14 06:54:30;;;;;;;9.23;6.75;;;13.20;99.90;;;12.80;100.00;97226.41;4974324;28;20041;-40
2022/10/14 06:56:56;;;;;;;11.98;6.38;;;13.30;99.90;;;12.91;100.00;97233.81;4991633;28;20101;-40
2022/10/14 06:59:22;;;;;;;11.35;6.88;;;13.30;99.90;;;13.02;100.00;97243.88;4987248;28;20479;-40
2022/10/14 07:01:47;;;;;;;11.93;7.38;;;13.40;99.90;;;13.09;100.00;97240.84;4990626;28;20050;-40
2022/10/14 07:04:13;;;;;;;12.85;7.43;;;13.50;99.90;;;13.14;100.00;97230.03;4992718;28;20038;-40
2022/10/14 07:06:39;;;;;;;11.50;6.68;;;13.60;99.90;;;13.20;100.00;97237.66;4988626;28;20058;-40
2022/10/14 07:09:04;;;;;;;8.48;6.68;;;13.60;99.90;;;13.25;100.00;97229.50;4993891;28;20129;-42
2022/10/14 07:11:30;;;;;;;14.45;8.32;;;13.70;99.90;;;13.23;100.00;97228.72;4992734;28;20048;-41
2022/10/14 07:13:56;;;;;;;11.75;7.10;;;13.60;99.90;;;13.18;100.00;97226.28;4993024;28;20121;-42
2022/10/14 07:16:22;;;;;;;15.18;8.27;;;13.60;99.90;;;13.16;100.00;97233.47;4988612;28;20073;-41
2022/10/14 07:18:48;;;;;;;10.63;7.20;;;13.60;99.90;;;13.09;100.00;97232.91;4975524;28;20034;-42
2022/10/14 07:21:14;;;;;;;13.10;8.25;;;13.60;99.90;;;13.08;100.00;97243.56;4988789;28;20427;-41
2022/10/14 07:23:40;;;;;;;13.70;7.75;;;13.50;99.90;;;13.07;100.00;97240.06;4984381;28;20037;-41
2022/10/14 07:26:06;;;;;;;11.98;7.25;;;13.50;99.90;;;13.10;100.00;97245.22;4987897;28;20444;-41
2022/10/14 07:28:32;;;;;;;11.77;7.68;;;13.50;99.90;;;13.13;100.00;97244.19;4991429;28;20038;-41
2022/10/14 07:31:10;;;;;;;10.20;6.75;;;13.50;99.90;;;13.22;100.00;97242.88;4988097;28;20037;-41
2022/10/14 07:33:37;;;;;;;12.68;7.57;;;13.60;99.90;;;13.29;100.00;97241.66;4989422;28;20034;-42
2022/10/14 07:36:08;;;;;;;10.38;6.65;;;13.70;99.90;;;13.42;100.00;97244.56;4989742;28;20036;-41
2022/10/14 07:38:34;;;;;;;10.02;5.47;;;13.80;99.90;;;13.60;100.00;97246.25;4993717;28;20034;-41
2022/10/14 07:41:08;;;;;;;10.63;6.63;;;14.00;99.90;;;13.76;100.00;97248.97;4992303;28;20030;-41
2022/10/14 07:43:34;;;;;;;10.15;6.20;;;14.10;99.90;;;13.92;100.00;97249.88;4988146;28;20100;-39
2022/10/14 07:46:03;;;;;;;8.27;6.03;;;14.30;99.90;;;14.02;100.00;97250.25;4987140;28;20061;-40
2022/10/14 07:48:31;;;;;;;7.82;6.00;;;14.40;99.90;;;14.10;100.00;97260.44;4987186;28;20060;-40
2022/10/14 07:50:57;;;;;;;10.63;6.20;;;14.50;99.90;;;14.12;100.00;97245.31;4986501;28;20121;-40
2022/10/14 07:53:25;;;;;;;8.10;5.63;;;14.50;99.90;;;14.23;100.00;97247.38;4973766;28;20038;-40
2022/10/14 07:55:51;;;;;;;11.60;6.18;;;14.60;99.90;;;14.23;100.00;97260.66;4989152;28;20038;-40
2022/10/14 07:58:22;;;;;;;7.32;5.35;;;14.60;99.90;;;14.22;100.00;97254.50;4990162;28;20498;-40
2022/10/14 08:00:49;;;;;;;7.93;5.25;;;14.60;99.90;;;14.21;100.00;97263.41;4991925;28;20029;-41
2022/10/14 08:03:17;;;;;;;10.50;5.90;;;14.60;99.90;;;14.20;100.00;97253.72;4995184;28;20061;-39
2022/10/14 08:05:43;;;;;;;7.53;5.03;;;14.60;99.90;;;14.28;100.00;97251.53;4991580;28;20035;-40
2022/10/14 08:08:10;;;;;;;7.22;5.45;;;14.70;99.90;;;14.34;100.00;97250.34;4991013;28;20038;-41
2022/10/14 08:10:37;;;;;;;8.18;5.63;;;14.80;99.90;;;14.46;100.00;97249.66;4988593;28;20054;-40
2022/10/14 08:13:03;;;;;;;7.50;4.63;;;14.90;99.90;;;14.60;100.00;97245.41;4992807;28;20207;-41
2022/10/14 08:15:37;;;;;;;7.82;4.82;;;15.00;99.90;;;14.65;100.00;97246.00;4987122;28;20037;-40
2022/10/14 08:18:04;;;;;;;9.00;5.03;;;15.00;99.90;;;14.65;100.00;97248.66;4989750;28;20065;-41
2022/10/14 08:20:31;;;;;;;8.25;4.93;;;15.00;99.90;;;14.63;100.00;97247.91;4966055;28;20030;-41
2022/10/14 08:22:57;;;;;;;5.28;4.35;;;15.00;99.90;;;14.64;100.00;97250.47;4988522;28;20034;-40
2022/10/14 08:25:22;;;;;;;5.68;4.18;;;15.00;99.90;;;14.66;100.00;97231.78;4991569;28;20080;-43
2022/10/14 08:27:53;;;;;;;7.38;4.55;;;15.10;99.90;;;14.65;100.00;97249.50;4985679;28;20099;-41
2022/10/14 08:30:19;;;;;;;6.47;4.38;;;15.10;99.90;;;14.66;100.00;97237.97;4987580;28;20116;-42
2022/10/14 08:32:45;;;;;;;5.88;4.47;;;15.10;99.90;;;14.74;100.00;97239.34;4989005;28;20128;-41
2022/10/14 08:35:11;;;;;;;5.90;4.15;;;15.10;99.90;;;14.86;100.00;97238.66;4991121;28;20034;-41
2022/10/14 08:37:37;;;;;;;6.20;5.00;;;15.20;99.90;;;14.84;100.00;97241.38;4970073;28;20034;-42
2022/10/14 08:40:04;;;;;;;5.95;4.47;;;15.30;99.90;;;14.92;100.00;97238.28;4991698;28;20395;-41
2022/10/14 08:43:01;;;;;;;6.68;4.25;;;15.30;99.90;;;15.01;100.00;97235.09;4985021;28;20138;-42
2022/10/14 08:45:44;;;;;;;7.78;3.95;;;15.40;99.90;;;15.06;100.00;97227.72;4985179;28;20072;-43
2022/10/14 08:48:16;;;;;;;6.45;4.57;;;15.50;99.90;;;15.21;100.00;97225.13;4973090;28;20045;-40
2022/10/14 08:51:09;;;;;;;9.47;4.50;;;15.60;99.90;;;15.27;100.00;97230.94;4974006;28;20637;-42
2022/10/14 08:53:43;;;;;;;7.38;4.28;;;15.70;99.90;;;15.44;100.00;97232.59;4972163;28;20495;-42
2022/10/14 08:56:11;;;;;;;5.18;3.03;;;15.80;99.90;;;15.62;100.00;97229.78;4970956;28;20038;-42
2022/10/14 08:58:49;;;;;;;6.45;4.20;;;16.00;99.90;;;15.69;100.00;97236.44;4988023;28;20108;-42
2022/10/14 09:01:23;;;;;;;6.85;3.95;;;16.10;99.90;;;15.75;100.00;97229.94;4968315;28;20149;-42
2022/10/14 09:03:56;;;;;;;6.85;4.53;;;16.20;99.90;;;15.83;100.00;97236.50;4963609;28;20038;-41
2022/10/14 09:06:32;;;;;;;5.60;3.53;;;16.20;99.90;;;15.84;100.00;97237.34;4990155;28;20041;-43
2022/10/14 09:09:08;;;;;;;7.15;3.67;;;16.20;99.90;;;15.84;100.00;97235.56;4967834;28;21026;-42
2022/10/14 09:11:42;;;;;;;8.65;3.80;;;16.20;99.90;;;15.82;100.00;97236.59;4971831;28;20034;-42
2022/10/14 09:14:20;;;;;;;7.97;3.60;;;16.20;99.90;;;15.87;100.00;97234.50;4971916;28;20045;-42
2022/10/14 09:16:51;;;;;;;6.25;3.55;;;16.20;99.90;;;15.86;100.00;97227.47;4974731;28;20045;-40
2022/10/14 09:19:39;;;;;;;5.72;3.42;;;16.30;99.90;;;15.88;100.00;97224.72;4965868;28;20073;-41
2022/10/14 09:22:13;;;;;;;6.13;3.38;;;16.30;99.90;;;15.86;100.00;97232.78;4969996;28;20042;-42
2022/10/14 09:24:39;;;;;;;7.88;3.75;;;16.30;99.90;;;15.80;100.00;97222.53;4990350;28;20022;-43
2022/10/14 09:27:12;;;;;;;7.43;3.22;;;16.30;99.90;;;15.82;100.00;97221.50;4990442;28;20022;-42
2022/10/14 09:30:00;;;;;;;3.28;2.65;;;16.30;99.90;;;15.84;100.00;97218.75;4988962;28;20037;-44
2022/10/14 09:32:39;;;;;;;7.65;3.10;;;16.30;99.90;;;15.86;100.00;97223.97;5024461;23;20084;-59
2022/10/14 09:35:38;;;;;;;4.68;3.40;;;16.30;99.90;;;15.89;100.00;97221.97;5008042;28;20615;-59
2022/10/14 09:38:04;;;;;;;5.25;2.80;;;16.40;99.90;;;16.00;100.00;97221.31;5015977;28;20057;-58
2022/10/14 09:40:38;;;;;;;5.00;2.75;;;16.40;99.90;;;16.08;100.00;97221.72;5014603;28;20030;-58
2022/10/14 09:43:09;;;;;;;4.53;3.10;;;16.50;99.90;;;16.17;100.00;97226.47;5033097;28;20021;-59
2022/10/14 09:45:57;;;;;;;4.70;3.15;;;16.60;99.90;;;16.29;100.00;97219.50;5030636;28;20072;-58
2022/10/14 09:48:48;;;;;;;5.97;2.95;;;16.70;99.90;;;16.36;100.00;97212.00;5032231;28;20037;-58
2022/10/14 09:51:29;;;;;;;8.50;3.00;;;16.80;99.90;;;16.54;100.00;97217.94;5048953;28;20041;-58
2022/10/14 09:54:00;;;;;;;4.20;2.63;;;16.90;99.90;;;16.71;100.00;97207.06;5032903;28;20036;-58
2022/10/14 09:56:35;;;;;;;6.15;2.88;;;17.10;99.90;;;16.82;100.00;97195.72;5030475;28;20053;-58
2022/10/14 09:59:03;;;;;;;8.48;3.28;;;17.20;99.90;;;17.03;100.00;97198.81;5032574;28;20025;-58
2022/10/14 10:01:39;;;;;;;5.57;3.05;;;17.40;99.90;;;17.15;100.00;97195.31;5036400;28;20115;-58
2022/10/14 10:04:30;;;;;;;6.20;2.72;;;17.60;99.90;;;17.38;100.00;97197.41;5034847;28;20037;-58
2022/10/14 10:06:57;;;;;;;4.00;2.60;;;17.80;99.90;;;17.55;100.00;97199.78;5030384;28;20033;-58
2022/10/14 10:09:22;;;;;;;4.55;2.60;;;17.90;99.90;;;17.72;100.00;97188.78;5033463;28;20103;-58
2022/10/14 10:11:48;;;;;;;4.13;2.65;;;18.10;99.90;;;17.84;100.00;97188.94;5031544;28;20033;-58
2022/10/14 10:14:20;;;;;;;4.18;2.30;;;18.20;99.90;;;18.02;100.00;97189.50;5030503;28;20035;-58
2022/10/14 10:16:46;;;;;;;4.23;2.33;;;18.40;99.90;;;18.13;100.00;97186.91;5032818;28;20693;-58
2022/10/14 10:19:30;;;;;;;4.50;2.58;;;18.60;99.90;;;18.23;98.82;97185.28;5036063;28;20036;-58
2022/10/14 10:22:19;;;;;;;4.55;2.60;;;18.70;99.90;;;18.26;98.32;97187.72;5025920;28;20742;-58
2022/10/14 10:25:07;;;;;;;6.97;2.53;;;18.70;99.90;;;18.31;97.55;97177.56;5029661;28;20036;-58